Cfl Racer — PJMV — position and weather

sailwx.info

Track history (hours):
 
Tides and Currents Weather Stations Pressure Air Temp Water Temp Dewpoint Dewpoint Depression Visibility Wind Speed Wind Dir Waves Ship Positions

Cfl Racer

Last reported at 2014-Jul-25 06:34 UTC. Time now 2014-Jul-25 06:47 UTC.
Position N 52°23' E 001°49'.

Length 83 m; draft 3.2 m.

Type: Cargo ship. MMSI: 306762000.

Date/timePositionNaut miles runAvg speedWind from/ knotsBaromVisibWave heightAir tempDewpointWater temp
2014-Jul-25 06:34N 52°23' E 001°49'1313.3
2014-Jul-25 05:33N 52°37' E 001°53'1312.7
2014-Jul-25 04:34N 52°47' E 001°42'1211.7
2014-Jul-25 03:34N 52°56' E 001°29'1110.7
2014-Jul-25 02:33N 53°01' E 001°13'1110.0
2014-Jul-25 01:26N 53°07' E 000°58'9 9.8
2014-Jul-25 00:31N 53°13' E 000°46'1010.0
2014-Jul-24 23:33N 53°20' E 000°35'1010.2
2014-Jul-24 22:34N 53°27' E 000°24'1010.0
2014-Jul-24 21:34N 53°33' E 000°09'1212.2
2014-Jul-24 20:33N 53°38' W 000°09'1 1.4
2014-Jul-24 19:34N 53°38' W 000°12'0 0.0
2014-Jul-24 18:32N 53°38' W 000°12'0 0.0
2014-Jul-24 17:29N 53°38' W 000°12'0 0.0
2014-Jul-24 16:29N 53°38' W 000°12'0 0.0
2014-Jul-24 15:29N 53°38' W 000°12'0 0.0
2014-Jul-24 14:32N 53°38' W 000°12'0 0.0
2014-Jul-24 13:26N 53°38' W 000°12'0 0.0
2014-Jul-24 12:29N 53°38' W 000°12'0 0.0
2014-Jul-24 11:32N 53°38' W 000°12'0 0.0
2014-Jul-24 10:26N 53°38' W 000°12'0 0.0
2014-Jul-24 09:29N 53°38' W 000°12'0 0.0
2014-Jul-24 08:23N 53°38' W 000°12'0 0.0
2014-Jul-24 07:32N 53°38' W 000°12'0 0.0
2014-Jul-24 06:32N 53°38' W 000°12'0 0.0
2014-Jul-24 05:23N 53°38' W 000°12'0 0.0
2014-Jul-24 04:26N 53°38' W 000°12'0 0.0
2014-Jul-24 03:29N 53°38' W 000°12'0 0.0
2014-Jul-24 02:32N 53°38' W 000°12'0 0.0
2014-Jul-24 01:23N 53°38' W 000°12'0 0.0
2014-Jul-24 00:32N 53°38' W 000°12'0 0.0
2014-Jul-23 23:32N 53°38' W 000°12'0 0.0
2014-Jul-23 22:26N 53°38' W 000°12'0 0.0
2014-Jul-23 21:32N 53°38' W 000°12'0 0.0
2014-Jul-23 20:29N 53°38' W 000°12'0 0.0
2014-Jul-23 19:29N 53°38' W 000°12'0 0.0
2014-Jul-23 18:33N 53°38' W 000°12'1 1.2
2014-Jul-23 17:33N 53°38' W 000°10'9 8.8
2014-Jul-23 16:33N 53°35' E 000°04'10 9.6
2014-Jul-23 15:33N 53°33' E 000°20'4 1.1
2014-Jul-23 12:06N 53°35' E 000°26'0 0.0
2014-Jul-23 10:27N 53°35' E 000°26'0 0.1
2014-Jul-23 09:09N 53°35' E 000°26'0 0.0
2014-Jul-23 08:12N 53°35' E 000°26'2 2.6
2014-Jul-23 07:32N 53°35' E 000°29'10 9.2
2014-Jul-23 06:24N 53°35' E 000°47'7 8.9
2014-Jul-23 05:33N 53°36' E 000°59'9 8.8
2014-Jul-23 04:33N 53°37' E 001°14'9 8.6
2014-Jul-23 03:31N 53°38' E 001°29'8 8.7
2014-Jul-23 02:33N 53°38' E 001°43'9 8.8
2014-Jul-23 01:33N 53°40' E 001°57'29 9.3
2014-Jul-22 22:28N 53°41' E 002°46'9 9.5
2014-Jul-22 21:29N 53°42' E 003°02'10 9.8
2014-Jul-22 20:29N 53°43' E 003°18'10 9.6
2014-Jul-22 19:25N 53°45' E 003°35'21 9.3
2014-Jul-22 17:12N 53°47' E 004°10'15 8.9
2014-Jul-22 15:31N 53°48' E 004°35'8 8.7
2014-Jul-22 14:33N 53°48' E 004°49'9 8.7
2014-Jul-22 13:33N 53°48' E 005°04'9 9.0
2014-Jul-22 12:33N 53°49' E 005°19'10 9.8
2014-Jul-22 11:33N 53°50' E 005°36'1110.7
2014-Jul-22 10:33N 53°51' E 005°54'1010.4
2014-Jul-22 09:33N 53°52' E 006°12'1210.3
2014-Jul-22 08:25N 53°52' E 006°31'37 9.4
2014-Jul-22 04:33N 54°00' E 007°32'9 8.9
2014-Jul-22 03:33N 54°02' E 007°47'9 9.2
2014-Jul-22 02:33N 54°01' E 008°02'1010.1
2014-Jul-22 01:33N 54°00' E 008°19'1211.6
2014-Jul-22 00:33N 53°57' E 008°38'1211.7
2014-Jul-21 23:33N 53°51' E 008°55'1312.5
2014-Jul-21 22:32N 53°52' E 009°17'10 9.8
2014-Jul-21 21:30N 53°44' E 009°27'8 8.4
2014-Jul-21 20:33N 53°37' E 009°33'2 9.0
2014-Jul-21 20:18N 53°36' E 009°36'6 8.4
2014-Jul-21 19:33N 53°34' E 009°46'7 7.2
2014-Jul-21 18:33N 53°30' E 009°57'0 0.1
2014-Jul-21 17:33N 53°30' E 009°57'0 0.0
2014-Jul-21 15:33N 53°30' E 009°57'0 0.0
2014-Jul-21 14:33N 53°30' E 009°57'0 0.0
2014-Jul-21 13:33N 53°30' E 009°57'0 0.0
2014-Jul-21 12:33N 53°30' E 009°57'0 0.0
2014-Jul-21 11:33N 53°30' E 009°57'0 0.0
2014-Jul-21 10:33N 53°30' E 009°57'0 0.0
2014-Jul-21 09:33N 53°30' E 009°57'0 0.0
2014-Jul-21 08:33N 53°30' E 009°57'0 0.0
2014-Jul-21 07:33N 53°30' E 009°57'0 0.0
2014-Jul-21 06:29N 53°30' E 009°57'0 0.0
2014-Jul-21 05:33N 53°30' E 009°57'0 0.0
2014-Jul-21 04:33N 53°30' E 009°57'0 0.0
2014-Jul-21 03:33N 53°30' E 009°57'0 0.0
2014-Jul-21 02:33N 53°30' E 009°57'1 1.2
2014-Jul-21 01:33N 53°31' E 009°56'8 8.4
2014-Jul-21 00:33N 53°34' E 009°43'10 9.0
2014-Jul-20 23:28N 53°40' E 009°30'8 9.1
2014-Jul-20 22:33N 53°47' E 009°23'9 8.7
2014-Jul-20 21:33N 53°53' E 009°11'1010.3
2014-Jul-20 20:33N 53°50' E 008°54'1010.0
2014-Jul-20 19:33N 53°56' E 008°40'1110.7
2014-Jul-20 18:33N 53°59' E 008°23'1211.5
2014-Jul-20 17:32N 53°58' E 008°03'6512.0
2014-Jul-20 12:08N 53°51' E 006°13'1012.4
2014-Jul-20 11:20N 53°51' E 005°57'911.8
2014-Jul-20 10:33N 53°50' E 005°41'1111.4
2014-Jul-20 09:33N 53°49' E 005°22'1110.8
2014-Jul-20 08:30N 53°48' E 005°03'15411.6
2014-Jul-19 19:15N 53°34' E 000°43'811.6
2014-Jul-19 18:33N 53°33' E 000°30'1110.7
2014-Jul-19 17:33N 53°32' E 000°12'9 9.2
2014-Jul-19 16:33N 53°36' W 000°02'1211.6
2014-Jul-19 15:33N 53°44' W 000°16'1 0.6
2014-Jul-19 14:33N 53°45' W 000°15'0 0.0
2014-Jul-19 13:33N 53°45' W 000°15'0 0.0
2014-Jul-19 12:11N 53°45' W 000°15'0 0.0
2014-Jul-19 08:31N 53°45' W 000°16'0 0.0
2014-Jul-19 07:33N 53°45' W 000°15'0 0.1
2014-Jul-19 06:34N 53°45' W 000°16'1 1.1
2014-Jul-19 05:34N 53°43' W 000°15'8 7.9
2014-Jul-19 04:34N 53°37' W 000°07'8 8.5
2014-Jul-19 03:34N 53°34' E 000°06'8 8.1
2014-Jul-19 02:33N 53°31' E 000°19'9 8.8
2014-Jul-19 01:31N 53°25' E 000°30'8 7.9
2014-Jul-19 00:30N 53°18' E 000°38'26 8.6
2014-Jul-18 21:33N 53°01' E 001°10'1010.0
2014-Jul-18 20:33N 52°57' E 001°25'1212.0
2014-Jul-18 19:33N 52°51' E 001°42'1312.5
2014-Jul-18 18:33N 52°43' E 001°58'1412.2
2014-Jul-18 17:24N 52°32' E 002°11'5910.2
2014-Jul-18 11:33N 51°45' E 003°12'1110.4
2014-Jul-18 10:33N 51°37' E 003°22'1111.4
2014-Jul-18 09:33N 51°27' E 003°32'1212.1
2014-Jul-18 08:33N 51°21' E 003°48'2 1.9
2014-Jul-18 07:33N 51°19' E 003°49'2 1.9
2014-Jul-18 06:33N 51°17' E 003°50'5 5.4
2014-Jul-18 05:33N 51°12' E 003°48'2 1.5
2014-Jul-18 04:30N 51°11' E 003°48'0 0.0
2014-Jul-18 03:30N 51°11' E 003°48'0 0.0
2014-Jul-18 02:29N 51°11' E 003°48'0 0.0
2014-Jul-18 01:30N 51°11' E 003°48'0 0.0
2014-Jul-18 00:24N 51°11' E 003°48'0 0.0
2014-Jul-17 23:29N 51°11' E 003°48'0 0.0
2014-Jul-17 22:29N 51°11' E 003°48'0 0.0
2014-Jul-17 21:30N 51°11' E 003°48'0 0.0
2014-Jul-17 20:32N 51°11' E 003°48'0 0.0
2014-Jul-17 19:32N 51°11' E 003°48'0 0.0
2014-Jul-17 18:32N 51°11' E 003°48'0 0.0
2014-Jul-17 17:29N 51°11' E 003°48'0 0.0
2014-Jul-17 16:32N 51°11' E 003°48'0 0.0
2014-Jul-17 15:32N 51°11' E 003°48'0 0.0
2014-Jul-17 14:26N 51°11' E 003°48'0 0.0
2014-Jul-17 13:32N 51°11' E 003°48'0 0.0
2014-Jul-17 12:26N 51°11' E 003°48'0 0.0
2014-Jul-17 11:26N 51°11' E 003°48'0 0.0
2014-Jul-17 10:29N 51°11' E 003°48'0 0.0
2014-Jul-17 09:30N 51°11' E 003°48'0 0.0
2014-Jul-17 08:32N 51°11' E 003°48'0 0.0
2014-Jul-17 07:29N 51°11' E 003°48'0 0.0
2014-Jul-17 06:33N 51°11' E 003°48'1 1.4
2014-Jul-17 05:32N 51°09' E 003°47'0 0.0
2014-Jul-17 04:33N 51°09' E 003°47'0 0.0
2014-Jul-17 03:33N 51°09' E 003°47'0 0.0
2014-Jul-17 02:33N 51°09' E 003°47'0 0.0
2014-Jul-17 01:32N 51°09' E 003°47'0 0.0
2014-Jul-17 00:33N 51°09' E 003°47'0 0.0
2014-Jul-16 23:33N 51°09' E 003°47'0 0.0
2014-Jul-16 22:32N 51°09' E 003°47'0 0.0
2014-Jul-16 21:34N 51°09' E 003°47'0 0.3
2014-Jul-16 20:33N 51°10' E 003°47'8 7.7
2014-Jul-16 19:34N 51°17' E 003°50'3 2.8
2014-Jul-16 18:34N 51°20' E 003°49'4 4.3
2014-Jul-16 17:33N 51°22' E 003°44'8 7.8
2014-Jul-16 16:33N 51°27' E 003°33'10 9.7
2014-Jul-16 15:33N 51°35' E 003°24'1110.7
2014-Jul-16 14:31N 51°44' E 003°14'10 8.6
2014-Jul-16 13:22N 51°50' E 003°02'7 8.7
2014-Jul-16 12:33N 51°55' E 002°53'10 9.6
2014-Jul-16 11:30N 52°02' E 002°42'4912.5
2014-Jul-16 07:33N 52°42' E 001°55'1211.5
2014-Jul-16 06:33N 52°50' E 001°41'1010.3
2014-Jul-16 05:33N 52°57' E 001°28'10 9.7
2014-Jul-16 04:33N 53°00' E 001°13'23 9.2
2014-Jul-16 02:05N 53°15' E 000°43'9 9.6
2014-Jul-16 01:09N 53°21' E 000°33'6 9.9
2014-Jul-16 00:33N 53°25' E 000°27'1010.0
2014-Jul-15 23:33N 53°32' E 000°15'1413.6
2014-Jul-15 22:34N 53°37' W 000°07'1211.5
2014-Jul-15 21:33N 53°43' W 000°24'13 8.6
2014-Jul-15 20:05N 53°42' W 000°46'  
Track history (hours):
 
Tides and Currents Weather Stations Pressure Air Temp Water Temp Dewpoint Dewpoint Depression Visibility Wind Speed Wind Dir Waves Ship Positions

Cfl Racer

Last reported at 2014-Jul-25 06:34 UTC. Time now 2014-Jul-25 06:47 UTC.
Position N 52°23' E 001°49'.

Length 83 m; draft 3.2 m.

Type: Cargo ship. MMSI: 306762000.

Date/timePositionNaut miles runAvg speedWind from/ knotsBaromVisibWave heightAir tempDewpointWater temp
2014-Jul-25 06:34N 52°23' E 001°49'1313.3
2014-Jul-25 05:33N 52°37' E 001°53'1312.7
2014-Jul-25 04:34N 52°47' E 001°42'1211.7
2014-Jul-25 03:34N 52°56' E 001°29'1110.7
2014-Jul-25 02:33N 53°01' E 001°13'1110.0
2014-Jul-25 01:26N 53°07' E 000°58'9 9.8
2014-Jul-25 00:31N 53°13' E 000°46'1010.0
2014-Jul-24 23:33N 53°20' E 000°35'1010.2
2014-Jul-24 22:34N 53°27' E 000°24'1010.0
2014-Jul-24 21:34N 53°33' E 000°09'1212.2
2014-Jul-24 20:33N 53°38' W 000°09'1 1.4
2014-Jul-24 19:34N 53°38' W 000°12'0 0.0
2014-Jul-24 18:32N 53°38' W 000°12'0 0.0
2014-Jul-24 17:29N 53°38' W 000°12'0 0.0
2014-Jul-24 16:29N 53°38' W 000°12'0 0.0
2014-Jul-24 15:29N 53°38' W 000°12'0 0.0
2014-Jul-24 14:32N 53°38' W 000°12'0 0.0
2014-Jul-24 13:26N 53°38' W 000°12'0 0.0
2014-Jul-24 12:29N 53°38' W 000°12'0 0.0
2014-Jul-24 11:32N 53°38' W 000°12'0 0.0
2014-Jul-24 10:26N 53°38' W 000°12'0 0.0
2014-Jul-24 09:29N 53°38' W 000°12'0 0.0
2014-Jul-24 08:23N 53°38' W 000°12'0 0.0
2014-Jul-24 07:32N 53°38' W 000°12'0 0.0
2014-Jul-24 06:32N 53°38' W 000°12'0 0.0
2014-Jul-24 05:23N 53°38' W 000°12'0 0.0
2014-Jul-24 04:26N 53°38' W 000°12'0 0.0
2014-Jul-24 03:29N 53°38' W 000°12'0 0.0
2014-Jul-24 02:32N 53°38' W 000°12'0 0.0
2014-Jul-24 01:23N 53°38' W 000°12'0 0.0
2014-Jul-24 00:32N 53°38' W 000°12'0 0.0
2014-Jul-23 23:32N 53°38' W 000°12'0 0.0
2014-Jul-23 22:26N 53°38' W 000°12'0 0.0
2014-Jul-23 21:32N 53°38' W 000°12'0 0.0
2014-Jul-23 20:29N 53°38' W 000°12'0 0.0
2014-Jul-23 19:29N 53°38' W 000°12'0 0.0
2014-Jul-23 18:33N 53°38' W 000°12'1 1.2
2014-Jul-23 17:33N 53°38' W 000°10'9 8.8
2014-Jul-23 16:33N 53°35' E 000°04'10 9.6
2014-Jul-23 15:33N 53°33' E 000°20'4 1.1
2014-Jul-23 12:06N 53°35' E 000°26'0 0.0
2014-Jul-23 10:27N 53°35' E 000°26'0 0.1
2014-Jul-23 09:09N 53°35' E 000°26'0 0.0
2014-Jul-23 08:12N 53°35' E 000°26'2 2.6
2014-Jul-23 07:32N 53°35' E 000°29'10 9.2
2014-Jul-23 06:24N 53°35' E 000°47'7 8.9
2014-Jul-23 05:33N 53°36' E 000°59'9 8.8
2014-Jul-23 04:33N 53°37' E 001°14'9 8.6
2014-Jul-23 03:31N 53°38' E 001°29'8 8.7
2014-Jul-23 02:33N 53°38' E 001°43'9 8.8
2014-Jul-23 01:33N 53°40' E 001°57'29 9.3
2014-Jul-22 22:28N 53°41' E 002°46'9 9.5
2014-Jul-22 21:29N 53°42' E 003°02'10 9.8
2014-Jul-22 20:29N 53°43' E 003°18'10 9.6
2014-Jul-22 19:25N 53°45' E 003°35'21 9.3
2014-Jul-22 17:12N 53°47' E 004°10'15 8.9
2014-Jul-22 15:31N 53°48' E 004°35'8 8.7
2014-Jul-22 14:33N 53°48' E 004°49'9 8.7
2014-Jul-22 13:33N 53°48' E 005°04'9 9.0
2014-Jul-22 12:33N 53°49' E 005°19'10 9.8
2014-Jul-22 11:33N 53°50' E 005°36'1110.7
2014-Jul-22 10:33N 53°51' E 005°54'1010.4
2014-Jul-22 09:33N 53°52' E 006°12'1210.3
2014-Jul-22 08:25N 53°52' E 006°31'37 9.4
2014-Jul-22 04:33N 54°00' E 007°32'9 8.9
2014-Jul-22 03:33N 54°02' E 007°47'9 9.2
2014-Jul-22 02:33N 54°01' E 008°02'1010.1
2014-Jul-22 01:33N 54°00' E 008°19'1211.6
2014-Jul-22 00:33N 53°57' E 008°38'1211.7
2014-Jul-21 23:33N 53°51' E 008°55'1312.5
2014-Jul-21 22:32N 53°52' E 009°17'10 9.8
2014-Jul-21 21:30N 53°44' E 009°27'8 8.4
2014-Jul-21 20:33N 53°37' E 009°33'2 9.0
2014-Jul-21 20:18N 53°36' E 009°36'6 8.4
2014-Jul-21 19:33N 53°34' E 009°46'7 7.2
2014-Jul-21 18:33N 53°30' E 009°57'0 0.1
2014-Jul-21 17:33N 53°30' E 009°57'0 0.0
2014-Jul-21 15:33N 53°30' E 009°57'0 0.0
2014-Jul-21 14:33N 53°30' E 009°57'0 0.0
2014-Jul-21 13:33N 53°30' E 009°57'0 0.0
2014-Jul-21 12:33N 53°30' E 009°57'0 0.0
2014-Jul-21 11:33N 53°30' E 009°57'0 0.0
2014-Jul-21 10:33N 53°30' E 009°57'0 0.0
2014-Jul-21 09:33N 53°30' E 009°57'0 0.0
2014-Jul-21 08:33N 53°30' E 009°57'0 0.0
2014-Jul-21 07:33N 53°30' E 009°57'0 0.0
2014-Jul-21 06:29N 53°30' E 009°57'0 0.0
2014-Jul-21 05:33N 53°30' E 009°57'0 0.0
2014-Jul-21 04:33N 53°30' E 009°57'0 0.0
2014-Jul-21 03:33N 53°30' E 009°57'0 0.0
2014-Jul-21 02:33N 53°30' E 009°57'1 1.2
2014-Jul-21 01:33N 53°31' E 009°56'8 8.4
2014-Jul-21 00:33N 53°34' E 009°43'10 9.0
2014-Jul-20 23:28N 53°40' E 009°30'8 9.1
2014-Jul-20 22:33N 53°47' E 009°23'9 8.7
2014-Jul-20 21:33N 53°53' E 009°11'1010.3
2014-Jul-20 20:33N 53°50' E 008°54'1010.0
2014-Jul-20 19:33N 53°56' E 008°40'1110.7
2014-Jul-20 18:33N 53°59' E 008°23'1211.5
2014-Jul-20 17:32N 53°58' E 008°03'6512.0
2014-Jul-20 12:08N 53°51' E 006°13'1012.4
2014-Jul-20 11:20N 53°51' E 005°57'911.8
2014-Jul-20 10:33N 53°50' E 005°41'1111.4
2014-Jul-20 09:33N 53°49' E 005°22'1110.8
2014-Jul-20 08:30N 53°48' E 005°03'15411.6
2014-Jul-19 19:15N 53°34' E 000°43'811.6
2014-Jul-19 18:33N 53°33' E 000°30'1110.7
2014-Jul-19 17:33N 53°32' E 000°12'9 9.2
2014-Jul-19 16:33N 53°36' W 000°02'1211.6
2014-Jul-19 15:33N 53°44' W 000°16'1 0.6
2014-Jul-19 14:33N 53°45' W 000°15'0 0.0
2014-Jul-19 13:33N 53°45' W 000°15'0 0.0
2014-Jul-19 12:11N 53°45' W 000°15'0 0.0
2014-Jul-19 08:31N 53°45' W 000°16'0 0.0
2014-Jul-19 07:33N 53°45' W 000°15'0 0.1
2014-Jul-19 06:34N 53°45' W 000°16'1 1.1
2014-Jul-19 05:34N 53°43' W 000°15'8 7.9
2014-Jul-19 04:34N 53°37' W 000°07'8 8.5
2014-Jul-19 03:34N 53°34' E 000°06'8 8.1
2014-Jul-19 02:33N 53°31' E 000°19'9 8.8
2014-Jul-19 01:31N 53°25' E 000°30'8 7.9
2014-Jul-19 00:30N 53°18' E 000°38'26 8.6
2014-Jul-18 21:33N 53°01' E 001°10'1010.0
2014-Jul-18 20:33N 52°57' E 001°25'1212.0
2014-Jul-18 19:33N 52°51' E 001°42'1312.5
2014-Jul-18 18:33N 52°43' E 001°58'1412.2
2014-Jul-18 17:24N 52°32' E 002°11'5910.2
2014-Jul-18 11:33N 51°45' E 003°12'1110.4
2014-Jul-18 10:33N 51°37' E 003°22'1111.4
2014-Jul-18 09:33N 51°27' E 003°32'1212.1
2014-Jul-18 08:33N 51°21' E 003°48'2 1.9
2014-Jul-18 07:33N 51°19' E 003°49'2 1.9
2014-Jul-18 06:33N 51°17' E 003°50'5 5.4
2014-Jul-18 05:33N 51°12' E 003°48'2 1.5
2014-Jul-18 04:30N 51°11' E 003°48'0 0.0
2014-Jul-18 03:30N 51°11' E 003°48'0 0.0
2014-Jul-18 02:29N 51°11' E 003°48'0 0.0
2014-Jul-18 01:30N 51°11' E 003°48'0 0.0
2014-Jul-18 00:24N 51°11' E 003°48'0 0.0
2014-Jul-17 23:29N 51°11' E 003°48'0 0.0
2014-Jul-17 22:29N 51°11' E 003°48'0 0.0
2014-Jul-17 21:30N 51°11' E 003°48'0 0.0
2014-Jul-17 20:32N 51°11' E 003°48'0 0.0
2014-Jul-17 19:32N 51°11' E 003°48'0 0.0
2014-Jul-17 18:32N 51°11' E 003°48'0 0.0
2014-Jul-17 17:29N 51°11' E 003°48'0 0.0
2014-Jul-17 16:32N 51°11' E 003°48'0 0.0
2014-Jul-17 15:32N 51°11' E 003°48'0 0.0
2014-Jul-17 14:26N 51°11' E 003°48'0 0.0
2014-Jul-17 13:32N 51°11' E 003°48'0 0.0
2014-Jul-17 12:26N 51°11' E 003°48'0 0.0
2014-Jul-17 11:26N 51°11' E 003°48'0 0.0
2014-Jul-17 10:29N 51°11' E 003°48'0 0.0
2014-Jul-17 09:30N 51°11' E 003°48'0 0.0
2014-Jul-17 08:32N 51°11' E 003°48'0 0.0
2014-Jul-17 07:29N 51°11' E 003°48'0 0.0
2014-Jul-17 06:33N 51°11' E 003°48'1 1.4
2014-Jul-17 05:32N 51°09' E 003°47'0 0.0
2014-Jul-17 04:33N 51°09' E 003°47'0 0.0
2014-Jul-17 03:33N 51°09' E 003°47'0 0.0
2014-Jul-17 02:33N 51°09' E 003°47'0 0.0
2014-Jul-17 01:32N 51°09' E 003°47'0 0.0
2014-Jul-17 00:33N 51°09' E 003°47'0 0.0
2014-Jul-16 23:33N 51°09' E 003°47'0 0.0
2014-Jul-16 22:32N 51°09' E 003°47'0 0.0
2014-Jul-16 21:34N 51°09' E 003°47'0 0.3
2014-Jul-16 20:33N 51°10' E 003°47'8 7.7
2014-Jul-16 19:34N 51°17' E 003°50'3 2.8
2014-Jul-16 18:34N 51°20' E 003°49'4 4.3
2014-Jul-16 17:33N 51°22' E 003°44'8 7.8
2014-Jul-16 16:33N 51°27' E 003°33'10 9.7
2014-Jul-16 15:33N 51°35' E 003°24'1110.7
2014-Jul-16 14:31N 51°44' E 003°14'10 8.6
2014-Jul-16 13:22N 51°50' E 003°02'7 8.7
2014-Jul-16 12:33N 51°55' E 002°53'10 9.6
2014-Jul-16 11:30N 52°02' E 002°42'4912.5
2014-Jul-16 07:33N 52°42' E 001°55'1211.5
2014-Jul-16 06:33N 52°50' E 001°41'1010.3
2014-Jul-16 05:33N 52°57' E 001°28'10 9.7
2014-Jul-16 04:33N 53°00' E 001°13'23 9.2
2014-Jul-16 02:05N 53°15' E 000°43'9 9.6
2014-Jul-16 01:09N 53°21' E 000°33'6 9.9
2014-Jul-16 00:33N 53°25' E 000°27'1010.0
2014-Jul-15 23:33N 53°32' E 000°15'1413.6
2014-Jul-15 22:34N 53°37' W 000°07'1211.5
2014-Jul-15 21:33N 53°43' W 000°24'13 8.6
2014-Jul-15 20:05N 53°42' W 000°46'  

Dump ship's entire track history